sensor_id;sensor_type;location;lat;lon;timestamp;P1;durP1;ratioP1;P2;durP2;ratioP2
17173;SDS011;8702;48.130;-1.696;2023-06-26T00:00:08;5.43;;;1.80;;
17173;SDS011;8702;48.130;-1.696;2023-06-26T00:02:36;6.43;;;1.90;;
17173;SDS011;8702;48.130;-1.696;2023-06-26T00:05:03;5.80;;;1.93;;
17173;SDS011;8702;48.130;-1.696;2023-06-26T00:07:31;5.50;;;1.93;;
17173;SDS011;8702;48.130;-1.696;2023-06-26T00:09:59;4.47;;;1.57;;
17173;SDS011;8702;48.130;-1.696;2023-06-26T00:12:26;6.47;;;2.17;;
17173;SDS011;8702;48.130;-1.696;2023-06-26T00:14:53;5.60;;;1.80;;
17173;SDS011;8702;48.130;-1.696;2023-06-26T00:17:22;4.73;;;1.80;;
17173;SDS011;8702;48.130;-1.696;2023-06-26T00:19:49;5.23;;;1.80;;
17173;SDS011;8702;48.130;-1.696;2023-06-26T00:22:17;6.90;;;2.00;;
17173;SDS011;8702;48.130;-1.696;2023-06-26T00:24:44;8.63;;;2.30;;
17173;SDS011;8702;48.130;-1.696;2023-06-26T00:27:11;5.53;;;2.00;;
17173;SDS011;8702;48.130;-1.696;2023-06-26T00:29:38;10.27;;;2.40;;
17173;SDS011;8702;48.130;-1.696;2023-06-26T00:32:06;6.23;;;2.10;;
17173;SDS011;8702;48.130;-1.696;2023-06-26T00:34:36;6.93;;;2.27;;
17173;SDS011;8702;48.130;-1.696;2023-06-26T00:37:06;5.57;;;1.67;;
17173;SDS011;8702;48.130;-1.696;2023-06-26T00:39:34;5.47;;;1.97;;
17173;SDS011;8702;48.130;-1.696;2023-06-26T00:42:03;4.90;;;1.87;;
17173;SDS011;8702;48.130;-1.696;2023-06-26T00:44:33;7.70;;;2.13;;
17173;SDS011;8702;48.130;-1.696;2023-06-26T00:47:02;5.53;;;2.10;;
17173;SDS011;8702;48.130;-1.696;2023-06-26T00:49:31;7.90;;;2.20;;
17173;SDS011;8702;48.130;-1.696;2023-06-26T00:52:03;7.70;;;2.30;;
17173;SDS011;8702;48.130;-1.696;2023-06-26T00:54:31;8.77;;;2.27;;
17173;SDS011;8702;48.130;-1.696;2023-06-26T00:56:59;6.70;;;2.30;;
17173;SDS011;8702;48.130;-1.696;2023-06-26T00:59:27;7.07;;;2.03;;
17173;SDS011;8702;48.130;-1.696;2023-06-26T01:01:57;8.07;;;2.30;;
17173;SDS011;8702;48.130;-1.696;2023-06-26T01:04:26;4.77;;;1.83;;
17173;SDS011;8702;48.130;-1.696;2023-06-26T01:06:57;5.03;;;1.70;;
17173;SDS011;8702;48.130;-1.696;2023-06-26T01:09:28;6.73;;;2.30;;
17173;SDS011;8702;48.130;-1.696;2023-06-26T01:11:55;8.33;;;2.10;;
17173;SDS011;8702;48.130;-1.696;2023-06-26T01:14:23;10.53;;;2.50;;
17173;SDS011;8702;48.130;-1.696;2023-06-26T01:16:50;6.27;;;2.30;;
17173;SDS011;8702;48.130;-1.696;2023-06-26T01:19:19;13.27;;;2.47;;
17173;SDS011;8702;48.130;-1.696;2023-06-26T01:21:51;8.50;;;2.20;;
17173;SDS011;8702;48.130;-1.696;2023-06-26T01:24:24;7.63;;;2.13;;
17173;SDS011;8702;48.130;-1.696;2023-06-26T01:26:59;5.80;;;1.80;;
17173;SDS011;8702;48.130;-1.696;2023-06-26T01:29:28;6.67;;;2.40;;
17173;SDS011;8702;48.130;-1.696;2023-06-26T01:31:57;8.57;;;2.10;;
17173;SDS011;8702;48.130;-1.696;2023-06-26T01:34:24;9.53;;;3.37;;
17173;SDS011;8702;48.130;-1.696;2023-06-26T01:36:52;6.60;;;2.07;;
17173;SDS011;8702;48.130;-1.696;2023-06-26T01:39:19;6.27;;;1.87;;
17173;SDS011;8702;48.130;-1.696;2023-06-26T01:41:46;7.20;;;2.40;;
17173;SDS011;8702;48.130;-1.696;2023-06-26T01:44:20;6.10;;;2.00;;
17173;SDS011;8702;48.130;-1.696;2023-06-26T01:47:02;3.93;;;1.63;;
17173;SDS011;8702;48.130;-1.696;2023-06-26T01:49:37;5.63;;;2.10;;
17173;SDS011;8702;48.130;-1.696;2023-06-26T01:52:12;7.90;;;2.57;;
17173;SDS011;8702;48.130;-1.696;2023-06-26T01:54:47;6.47;;;2.27;;
17173;SDS011;8702;48.130;-1.696;2023-06-26T01:57:19;9.40;;;2.70;;
17173;SDS011;8702;48.130;-1.696;2023-06-26T01:59:50;6.73;;;2.07;;
17173;SDS011;8702;48.130;-1.696;2023-06-26T02:02:18;6.53;;;2.23;;
17173;SDS011;8702;48.130;-1.696;2023-06-26T02:04:45;10.57;;;2.70;;
17173;SDS011;8702;48.130;-1.696;2023-06-26T02:07:14;6.60;;;2.53;;
17173;SDS011;8702;48.130;-1.696;2023-06-26T02:09:41;8.30;;;2.60;;
17173;SDS011;8702;48.130;-1.696;2023-06-26T02:12:08;6.20;;;1.90;;
17173;SDS011;8702;48.130;-1.696;2023-06-26T02:14:35;7.80;;;2.43;;
17173;SDS011;8702;48.130;-1.696;2023-06-26T02:17:04;7.73;;;2.23;;
17173;SDS011;8702;48.130;-1.696;2023-06-26T02:19:33;9.07;;;2.23;;
17173;SDS011;8702;48.130;-1.696;2023-06-26T02:22:00;4.80;;;2.10;;
17173;SDS011;8702;48.130;-1.696;2023-06-26T02:24:28;8.17;;;2.40;;
17173;SDS011;8702;48.130;-1.696;2023-06-26T02:26:55;9.17;;;2.50;;
17173;SDS011;8702;48.130;-1.696;2023-06-26T02:29:22;9.23;;;2.10;;
17173;SDS011;8702;48.130;-1.696;2023-06-26T02:31:49;8.33;;;2.30;;
17173;SDS011;8702;48.130;-1.696;2023-06-26T02:34:17;6.93;;;2.37;;
17173;SDS011;8702;48.130;-1.696;2023-06-26T02:36:44;3.83;;;2.13;;
17173;SDS011;8702;48.130;-1.696;2023-06-26T02:39:11;7.20;;;2.73;;
17173;SDS011;8702;48.130;-1.696;2023-06-26T02:41:39;7.80;;;2.63;;
17173;SDS011;8702;48.130;-1.696;2023-06-26T02:44:06;6.23;;;2.10;;
17173;SDS011;8702;48.130;-1.696;2023-06-26T02:46:33;10.00;;;2.13;;
17173;SDS011;8702;48.130;-1.696;2023-06-26T02:49:00;6.50;;;2.13;;
17173;SDS011;8702;48.130;-1.696;2023-06-26T02:51:28;8.53;;;2.57;;
17173;SDS011;8702;48.130;-1.696;2023-06-26T02:53:56;7.10;;;2.70;;
17173;SDS011;8702;48.130;-1.696;2023-06-26T02:56:25;6.43;;;2.40;;
17173;SDS011;8702;48.130;-1.696;2023-06-26T02:58:54;7.77;;;2.17;;
17173;SDS011;8702;48.130;-1.696;2023-06-26T03:01:20;6.47;;;2.97;;
17173;SDS011;8702;48.130;-1.696;2023-06-26T03:03:47;10.70;;;2.80;;
17173;SDS011;8702;48.130;-1.696;2023-06-26T03:06:15;6.90;;;2.17;;
17173;SDS011;8702;48.130;-1.696;2023-06-26T03:08:44;8.93;;;2.97;;
17173;SDS011;8702;48.130;-1.696;2023-06-26T03:11:10;6.27;;;2.57;;
17173;SDS011;8702;48.130;-1.696;2023-06-26T03:13:37;9.27;;;2.70;;
17173;SDS011;8702;48.130;-1.696;2023-06-26T03:16:04;6.83;;;2.40;;
17173;SDS011;8702;48.130;-1.696;2023-06-26T03:18:31;6.80;;;2.27;;
17173;SDS011;8702;48.130;-1.696;2023-06-26T03:20:58;9.73;;;2.43;;
17173;SDS011;8702;48.130;-1.696;2023-06-26T03:23:26;6.27;;;2.57;;
17173;SDS011;8702;48.130;-1.696;2023-06-26T03:25:54;8.23;;;2.73;;
17173;SDS011;8702;48.130;-1.696;2023-06-26T03:28:21;9.43;;;2.67;;
17173;SDS011;8702;48.130;-1.696;2023-06-26T03:30:48;8.23;;;2.60;;
17173;SDS011;8702;48.130;-1.696;2023-06-26T03:33:15;6.97;;;2.20;;
17173;SDS011;8702;48.130;-1.696;2023-06-26T03:35:42;6.97;;;2.30;;
17173;SDS011;8702;48.130;-1.696;2023-06-26T03:38:09;8.30;;;2.90;;
17173;SDS011;8702;48.130;-1.696;2023-06-26T03:40:37;8.40;;;2.90;;
17173;SDS011;8702;48.130;-1.696;2023-06-26T03:43:06;10.73;;;2.80;;
17173;SDS011;8702;48.130;-1.696;2023-06-26T03:45:33;7.57;;;2.33;;
17173;SDS011;8702;48.130;-1.696;2023-06-26T03:48:00;9.67;;;2.80;;
17173;SDS011;8702;48.130;-1.696;2023-06-26T03:50:27;8.17;;;2.43;;
17173;SDS011;8702;48.130;-1.696;2023-06-26T03:52:54;8.90;;;3.00;;
17173;SDS011;8702;48.130;-1.696;2023-06-26T03:55:21;9.10;;;2.97;;
17173;SDS011;8702;48.130;-1.696;2023-06-26T03:57:49;12.27;;;3.43;;
17173;SDS011;8702;48.130;-1.696;2023-06-26T04:00:18;9.27;;;2.80;;
17173;SDS011;8702;48.130;-1.696;2023-06-26T04:02:45;12.77;;;3.47;;
17173;SDS011;8702;48.130;-1.696;2023-06-26T04:05:13;10.57;;;2.87;;
17173;SDS011;8702;48.130;-1.696;2023-06-26T04:07:42;7.23;;;2.40;;
17173;SDS011;8702;48.130;-1.696;2023-06-26T04:10:09;9.20;;;2.93;;
17173;SDS011;8702;48.130;-1.696;2023-06-26T04:12:36;9.07;;;2.60;;
17173;SDS011;8702;48.130;-1.696;2023-06-26T04:15:03;12.77;;;2.97;;
17173;SDS011;8702;48.130;-1.696;2023-06-26T04:17:32;7.07;;;2.23;;
17173;SDS011;8702;48.130;-1.696;2023-06-26T04:19:59;6.53;;;2.63;;
17173;SDS011;8702;48.130;-1.696;2023-06-26T04:22:26;12.00;;;2.97;;
17173;SDS011;8702;48.130;-1.696;2023-06-26T04:24:53;11.90;;;3.00;;
17173;SDS011;8702;48.130;-1.696;2023-06-26T04:27:20;6.83;;;2.77;;
17173;SDS011;8702;48.130;-1.696;2023-06-26T04:29:46;7.90;;;2.60;;
17173;SDS011;8702;48.130;-1.696;2023-06-26T04:32:13;9.03;;;3.10;;
17173;SDS011;8702;48.130;-1.696;2023-06-26T04:34:42;5.97;;;2.50;;
17173;SDS011;8702;48.130;-1.696;2023-06-26T04:37:14;8.43;;;2.50;;
17173;SDS011;8702;48.130;-1.696;2023-06-26T04:39:42;8.23;;;3.10;;
17173;SDS011;8702;48.130;-1.696;2023-06-26T04:42:09;8.23;;;2.87;;
17173;SDS011;8702;48.130;-1.696;2023-06-26T04:44:37;8.07;;;2.80;;
17173;SDS011;8702;48.130;-1.696;2023-06-26T04:47:06;12.17;;;3.23;;
17173;SDS011;8702;48.130;-1.696;2023-06-26T04:49:33;7.83;;;2.87;;
17173;SDS011;8702;48.130;-1.696;2023-06-26T04:52:01;9.37;;;2.73;;
17173;SDS011;8702;48.130;-1.696;2023-06-26T04:54:28;7.90;;;2.67;;
17173;SDS011;8702;48.130;-1.696;2023-06-26T04:56:55;7.83;;;2.53;;
17173;SDS011;8702;48.130;-1.696;2023-06-26T04:59:25;8.30;;;2.37;;
17173;SDS011;8702;48.130;-1.696;2023-06-26T05:01:51;8.90;;;2.60;;
17173;SDS011;8702;48.130;-1.696;2023-06-26T05:04:18;6.20;;;2.63;;
17173;SDS011;8702;48.130;-1.696;2023-06-26T05:06:46;7.63;;;2.50;;
17173;SDS011;8702;48.130;-1.696;2023-06-26T05:09:15;9.10;;;2.63;;
17173;SDS011;8702;48.130;-1.696;2023-06-26T05:11:45;7.60;;;2.47;;
17173;SDS011;8702;48.130;-1.696;2023-06-26T05:14:13;5.77;;;2.27;;
17173;SDS011;8702;48.130;-1.696;2023-06-26T05:16:40;8.77;;;3.00;;
17173;SDS011;8702;48.130;-1.696;2023-06-26T05:19:07;8.77;;;2.70;;
17173;SDS011;8702;48.130;-1.696;2023-06-26T05:21:34;5.40;;;2.40;;
17173;SDS011;8702;48.130;-1.696;2023-06-26T05:24:02;7.50;;;2.60;;
17173;SDS011;8702;48.130;-1.696;2023-06-26T05:26:31;11.20;;;3.40;;
17173;SDS011;8702;48.130;-1.696;2023-06-26T05:28:58;5.27;;;2.30;;
17173;SDS011;8702;48.130;-1.696;2023-06-26T05:31:26;9.07;;;3.30;;
17173;SDS011;8702;48.130;-1.696;2023-06-26T05:33:53;5.93;;;2.60;;
17173;SDS011;8702;48.130;-1.696;2023-06-26T05:36:24;11.93;;;3.23;;
17173;SDS011;8702;48.130;-1.696;2023-06-26T05:38:51;8.80;;;2.77;;
17173;SDS011;8702;48.130;-1.696;2023-06-26T05:41:19;9.53;;;2.73;;
17173;SDS011;8702;48.130;-1.696;2023-06-26T05:43:47;15.30;;;3.67;;
17173;SDS011;8702;48.130;-1.696;2023-06-26T05:46:14;9.90;;;2.60;;
17173;SDS011;8702;48.130;-1.696;2023-06-26T05:48:41;10.73;;;2.80;;
17173;SDS011;8702;48.130;-1.696;2023-06-26T05:51:09;9.03;;;2.90;;
17173;SDS011;8702;48.130;-1.696;2023-06-26T05:53:36;8.43;;;2.90;;
17173;SDS011;8702;48.130;-1.696;2023-06-26T05:56:03;7.80;;;2.73;;
17173;SDS011;8702;48.130;-1.696;2023-06-26T05:58:30;12.73;;;3.57;;
17173;SDS011;8702;48.130;-1.696;2023-06-26T06:01:00;13.17;;;3.13;;
17173;SDS011;8702;48.130;-1.696;2023-06-26T06:03:27;9.70;;;3.53;;
17173;SDS011;8702;48.130;-1.696;2023-06-26T06:05:53;10.03;;;3.23;;
17173;SDS011;8702;48.130;-1.696;2023-06-26T06:08:21;11.27;;;3.10;;
17173;SDS011;8702;48.130;-1.696;2023-06-26T06:10:47;12.53;;;3.30;;
17173;SDS011;8702;48.130;-1.696;2023-06-26T06:13:14;12.00;;;3.00;;
17173;SDS011;8702;48.130;-1.696;2023-06-26T06:15:41;10.53;;;2.93;;
17173;SDS011;8702;48.130;-1.696;2023-06-26T06:18:09;10.23;;;3.00;;
17173;SDS011;8702;48.130;-1.696;2023-06-26T06:20:36;8.90;;;2.93;;
17173;SDS011;8702;48.130;-1.696;2023-06-26T06:23:03;12.10;;;3.00;;
17173;SDS011;8702;48.130;-1.696;2023-06-26T06:25:31;9.00;;;2.67;;
17173;SDS011;8702;48.130;-1.696;2023-06-26T06:27:58;6.27;;;2.77;;
17173;SDS011;8702;48.130;-1.696;2023-06-26T06:30:25;7.30;;;2.57;;
17173;SDS011;8702;48.130;-1.696;2023-06-26T06:32:52;9.50;;;2.77;;
17173;SDS011;8702;48.130;-1.696;2023-06-26T06:35:21;5.50;;;2.53;;
17173;SDS011;8702;48.130;-1.696;2023-06-26T06:37:47;11.20;;;2.87;;
17173;SDS011;8702;48.130;-1.696;2023-06-26T06:40:14;10.43;;;2.70;;
17173;SDS011;8702;48.130;-1.696;2023-06-26T06:42:41;8.27;;;2.43;;
17173;SDS011;8702;48.130;-1.696;2023-06-26T06:45:09;9.13;;;2.93;;
17173;SDS011;8702;48.130;-1.696;2023-06-26T06:47:37;11.73;;;3.20;;
17173;SDS011;8702;48.130;-1.696;2023-06-26T06:50:04;8.10;;;2.60;;
17173;SDS011;8702;48.130;-1.696;2023-06-26T06:52:36;8.83;;;3.00;;
17173;SDS011;8702;48.130;-1.696;2023-06-26T06:55:05;7.37;;;2.43;;
17173;SDS011;8702;48.130;-1.696;2023-06-26T06:57:34;13.50;;;3.33;;
17173;SDS011;8702;48.130;-1.696;2023-06-26T07:00:03;11.23;;;3.00;;
17173;SDS011;8702;48.130;-1.696;2023-06-26T07:02:33;10.07;;;2.70;;
17173;SDS011;8702;48.130;-1.696;2023-06-26T07:05:01;9.50;;;2.63;;
17173;SDS011;8702;48.130;-1.696;2023-06-26T07:07:31;11.90;;;2.73;;
17173;SDS011;8702;48.130;-1.696;2023-06-26T07:10:02;7.77;;;2.50;;
17173;SDS011;8702;48.130;-1.696;2023-06-26T07:12:33;12.67;;;3.23;;
17173;SDS011;8702;48.130;-1.696;2023-06-26T07:15:00;12.73;;;2.80;;
17173;SDS011;8702;48.130;-1.696;2023-06-26T07:17:29;9.80;;;2.93;;
17173;SDS011;8702;48.130;-1.696;2023-06-26T07:19:58;10.67;;;2.80;;
17173;SDS011;8702;48.130;-1.696;2023-06-26T07:22:26;6.63;;;2.33;;
17173;SDS011;8702;48.130;-1.696;2023-06-26T07:24:53;8.67;;;2.67;;
17173;SDS011;8702;48.130;-1.696;2023-06-26T07:27:23;5.97;;;2.13;;
17173;SDS011;8702;48.130;-1.696;2023-06-26T07:29:51;14.13;;;2.53;;
17173;SDS011;8702;48.130;-1.696;2023-06-26T07:32:18;9.87;;;2.47;;
17173;SDS011;8702;48.130;-1.696;2023-06-26T07:34:45;9.90;;;2.47;;
17173;SDS011;8702;48.130;-1.696;2023-06-26T07:37:14;8.83;;;2.10;;
17173;SDS011;8702;48.130;-1.696;2023-06-26T07:39:43;7.73;;;2.37;;
17173;SDS011;8702;48.130;-1.696;2023-06-26T07:42:12;10.17;;;2.73;;
17173;SDS011;8702;48.130;-1.696;2023-06-26T07:44:42;8.50;;;2.57;;
17173;SDS011;8702;48.130;-1.696;2023-06-26T07:47:10;11.80;;;2.60;;
17173;SDS011;8702;48.130;-1.696;2023-06-26T07:49:39;7.43;;;2.33;;
17173;SDS011;8702;48.130;-1.696;2023-06-26T07:52:07;6.30;;;2.07;;
17173;SDS011;8702;48.130;-1.696;2023-06-26T07:54:41;9.00;;;2.30;;
17173;SDS011;8702;48.130;-1.696;2023-06-26T07:57:09;11.27;;;2.40;;
17173;SDS011;8702;48.130;-1.696;2023-06-26T07:59:39;4.33;;;1.90;;
17173;SDS011;8702;48.130;-1.696;2023-06-26T08:02:10;4.97;;;1.90;;
17173;SDS011;8702;48.130;-1.696;2023-06-26T08:04:40;9.13;;;2.00;;
17173;SDS011;8702;48.130;-1.696;2023-06-26T08:07:11;5.53;;;2.13;;
17173;SDS011;8702;48.130;-1.696;2023-06-26T08:09:41;10.57;;;2.20;;
17173;SDS011;8702;48.130;-1.696;2023-06-26T08:12:10;3.87;;;2.07;;
17173;SDS011;8702;48.130;-1.696;2023-06-26T08:14:37;5.23;;;1.90;;
17173;SDS011;8702;48.130;-1.696;2023-06-26T08:17:04;9.60;;;2.37;;
17173;SDS011;8702;48.130;-1.696;2023-06-26T08:19:33;12.13;;;2.30;;
17173;SDS011;8702;48.130;-1.696;2023-06-26T08:22:00;6.33;;;2.00;;
17173;SDS011;8702;48.130;-1.696;2023-06-26T08:24:27;5.33;;;1.93;;
17173;SDS011;8702;48.130;-1.696;2023-06-26T08:26:54;9.97;;;2.63;;
17173;SDS011;8702;48.130;-1.696;2023-06-26T08:29:21;6.43;;;1.93;;
17173;SDS011;8702;48.130;-1.696;2023-06-26T08:31:49;6.47;;;2.10;;
17173;SDS011;8702;48.130;-1.696;2023-06-26T08:34:16;9.80;;;2.40;;
17173;SDS011;8702;48.130;-1.696;2023-06-26T08:36:44;7.10;;;1.90;;
17173;SDS011;8702;48.130;-1.696;2023-06-26T08:39:11;7.70;;;2.10;;
17173;SDS011;8702;48.130;-1.696;2023-06-26T08:41:39;7.73;;;2.50;;
17173;SDS011;8702;48.130;-1.696;2023-06-26T08:44:07;7.03;;;2.00;;
17173;SDS011;8702;48.130;-1.696;2023-06-26T08:46:34;4.07;;;1.80;;
17173;SDS011;8702;48.130;-1.696;2023-06-26T08:49:08;6.10;;;2.10;;
17173;SDS011;8702;48.130;-1.696;2023-06-26T08:51:38;5.80;;;1.90;;
17173;SDS011;8702;48.130;-1.696;2023-06-26T08:54:07;8.97;;;2.00;;
17173;SDS011;8702;48.130;-1.696;2023-06-26T08:56:36;3.93;;;1.50;;
17173;SDS011;8702;48.130;-1.696;2023-06-26T08:59:04;4.60;;;1.97;;
17173;SDS011;8702;48.130;-1.696;2023-06-26T09:01:35;7.33;;;1.97;;
17173;SDS011;8702;48.130;-1.696;2023-06-26T09:04:02;9.57;;;2.20;;
17173;SDS011;8702;48.130;-1.696;2023-06-26T09:06:30;5.60;;;1.90;;
17173;SDS011;8702;48.130;-1.696;2023-06-26T09:08:57;5.60;;;1.87;;
17173;SDS011;8702;48.130;-1.696;2023-06-26T09:11:25;6.90;;;1.97;;
17173;SDS011;8702;48.130;-1.696;2023-06-26T09:13:53;6.40;;;2.30;;
17173;SDS011;8702;48.130;-1.696;2023-06-26T09:16:23;8.60;;;1.90;;
17173;SDS011;8702;48.130;-1.696;2023-06-26T09:18:52;3.77;;;1.93;;
17173;SDS011;8702;48.130;-1.696;2023-06-26T09:21:19;9.00;;;2.17;;
17173;SDS011;8702;48.130;-1.696;2023-06-26T09:23:46;4.70;;;1.87;;
17173;SDS011;8702;48.130;-1.696;2023-06-26T09:26:14;10.33;;;2.10;;
17173;SDS011;8702;48.130;-1.696;2023-06-26T09:28:43;4.63;;;1.73;;
17173;SDS011;8702;48.130;-1.696;2023-06-26T09:31:10;6.83;;;2.13;;
17173;SDS011;8702;48.130;-1.696;2023-06-26T09:33:38;6.20;;;2.07;;
17173;SDS011;8702;48.130;-1.696;2023-06-26T09:36:07;7.90;;;2.13;;
17173;SDS011;8702;48.130;-1.696;2023-06-26T09:38:35;3.93;;;1.70;;
17173;SDS011;8702;48.130;-1.696;2023-06-26T09:41:02;3.67;;;1.60;;
17173;SDS011;8702;48.130;-1.696;2023-06-26T09:43:29;5.73;;;1.73;;
17173;SDS011;8702;48.130;-1.696;2023-06-26T09:45:59;6.43;;;2.07;;
17173;SDS011;8702;48.130;-1.696;2023-06-26T09:48:27;4.07;;;1.70;;
17173;SDS011;8702;48.130;-1.696;2023-06-26T09:50:55;5.80;;;1.77;;
17173;SDS011;8702;48.130;-1.696;2023-06-26T09:53:22;4.47;;;1.43;;
17173;SDS011;8702;48.130;-1.696;2023-06-26T09:55:49;3.67;;;1.70;;
17173;SDS011;8702;48.130;-1.696;2023-06-26T09:58:17;6.23;;;2.10;;
17173;SDS011;8702;48.130;-1.696;2023-06-26T10:00:47;6.93;;;2.07;;
17173;SDS011;8702;48.130;-1.696;2023-06-26T10:03:18;6.97;;;2.10;;
17173;SDS011;8702;48.130;-1.696;2023-06-26T10:05:45;4.60;;;2.10;;
17173;SDS011;8702;48.130;-1.696;2023-06-26T10:08:15;5.47;;;2.27;;
17173;SDS011;8702;48.130;-1.696;2023-06-26T10:10:43;5.17;;;1.70;;
17173;SDS011;8702;48.130;-1.696;2023-06-26T10:13:16;7.13;;;2.00;;
17173;SDS011;8702;48.130;-1.696;2023-06-26T10:15:45;5.07;;;1.53;;
17173;SDS011;8702;48.130;-1.696;2023-06-26T10:18:13;6.00;;;2.13;;
17173;SDS011;8702;48.130;-1.696;2023-06-26T10:20:45;5.10;;;1.90;;
17173;SDS011;8702;48.130;-1.696;2023-06-26T10:23:14;7.47;;;2.20;;
17173;SDS011;8702;48.130;-1.696;2023-06-26T10:25:42;12.63;;;1.90;;
17173;SDS011;8702;48.130;-1.696;2023-06-26T10:28:11;5.37;;;2.03;;
17173;SDS011;8702;48.130;-1.696;2023-06-26T10:30:39;5.77;;;2.00;;
17173;SDS011;8702;48.130;-1.696;2023-06-26T10:33:06;6.90;;;1.70;;
17173;SDS011;8702;48.130;-1.696;2023-06-26T10:35:40;8.47;;;1.90;;
17173;SDS011;8702;48.130;-1.696;2023-06-26T10:38:11;5.03;;;2.00;;
17173;SDS011;8702;48.130;-1.696;2023-06-26T10:40:42;5.97;;;1.77;;
17173;SDS011;8702;48.130;-1.696;2023-06-26T10:43:10;7.30;;;2.10;;
17173;SDS011;8702;48.130;-1.696;2023-06-26T10:45:43;5.37;;;1.70;;
17173;SDS011;8702;48.130;-1.696;2023-06-26T10:48:12;3.17;;;1.57;;
17173;SDS011;8702;48.130;-1.696;2023-06-26T10:50:40;6.50;;;2.00;;
17173;SDS011;8702;48.130;-1.696;2023-06-26T10:53:07;6.57;;;2.10;;
17173;SDS011;8702;48.130;-1.696;2023-06-26T10:55:47;5.23;;;2.10;;
17173;SDS011;8702;48.130;-1.696;2023-06-26T10:58:40;7.00;;;1.80;;
17173;SDS011;8702;48.130;-1.696;2023-06-26T11:04:06;8.20;;;2.17;;
17173;SDS011;8702;48.130;-1.696;2023-06-26T11:06:36;4.40;;;1.40;;
17173;SDS011;8702;48.130;-1.696;2023-06-26T11:09:09;4.03;;;1.93;;
17173;SDS011;8702;48.130;-1.696;2023-06-26T11:11:55;6.07;;;1.70;;
17173;SDS011;8702;48.130;-1.696;2023-06-26T11:14:30;8.23;;;1.97;;
17173;SDS011;8702;48.130;-1.696;2023-06-26T11:16:58;5.13;;;1.87;;
17173;SDS011;8702;48.130;-1.696;2023-06-26T11:19:27;5.27;;;1.70;;
17173;SDS011;8702;48.130;-1.696;2023-06-26T11:21:58;9.33;;;2.03;;
17173;SDS011;8702;48.130;-1.696;2023-06-26T11:24:27;5.53;;;1.80;;
17173;SDS011;8702;48.130;-1.696;2023-06-26T11:26:59;7.00;;;2.13;;
17173;SDS011;8702;48.130;-1.696;2023-06-26T11:29:28;3.10;;;1.67;;
17173;SDS011;8702;48.130;-1.696;2023-06-26T11:31:59;6.53;;;1.80;;
17173;SDS011;8702;48.130;-1.696;2023-06-26T11:34:30;5.73;;;2.03;;
17173;SDS011;8702;48.130;-1.696;2023-06-26T11:36:58;4.60;;;1.83;;
17173;SDS011;8702;48.130;-1.696;2023-06-26T11:39:29;4.37;;;1.90;;
17173;SDS011;8702;48.130;-1.696;2023-06-26T11:41:57;5.10;;;1.83;;
17173;SDS011;8702;48.130;-1.696;2023-06-26T11:44:29;7.90;;;2.33;;
17173;SDS011;8702;48.130;-1.696;2023-06-26T11:46:58;8.90;;;2.00;;
17173;SDS011;8702;48.130;-1.696;2023-06-26T11:49:25;7.10;;;2.33;;
17173;SDS011;8702;48.130;-1.696;2023-06-26T11:51:53;6.57;;;1.87;;
17173;SDS011;8702;48.130;-1.696;2023-06-26T11:54:24;6.47;;;1.97;;
17173;SDS011;8702;48.130;-1.696;2023-06-26T11:56:55;6.47;;;1.90;;
17173;SDS011;8702;48.130;-1.696;2023-06-26T11:59:23;8.70;;;2.37;;
17173;SDS011;8702;48.130;-1.696;2023-06-26T12:01:50;5.47;;;1.97;;
17173;SDS011;8702;48.130;-1.696;2023-06-26T12:04:18;5.50;;;1.90;;
17173;SDS011;8702;48.130;-1.696;2023-06-26T12:06:47;7.43;;;1.50;;
17173;SDS011;8702;48.130;-1.696;2023-06-26T12:09:15;5.87;;;1.90;;
17173;SDS011;8702;48.130;-1.696;2023-06-26T12:11:43;3.87;;;1.70;;
17173;SDS011;8702;48.130;-1.696;2023-06-26T12:14:14;5.90;;;2.20;;
17173;SDS011;8702;48.130;-1.696;2023-06-26T12:16:41;4.10;;;1.70;;
17173;SDS011;8702;48.130;-1.696;2023-06-26T12:19:09;4.30;;;1.70;;
17173;SDS011;8702;48.130;-1.696;2023-06-26T12:21:46;4.23;;;1.87;;
17173;SDS011;8702;48.130;-1.696;2023-06-26T12:24:17;5.93;;;1.87;;
17173;SDS011;8702;48.130;-1.696;2023-06-26T12:26:46;2.90;;;1.40;;
17173;SDS011;8702;48.130;-1.696;2023-06-26T12:29:15;4.17;;;2.00;;
17173;SDS011;8702;48.130;-1.696;2023-06-26T12:31:43;5.77;;;1.60;;
17173;SDS011;8702;48.130;-1.696;2023-06-26T12:34:11;3.37;;;1.83;;
17173;SDS011;8702;48.130;-1.696;2023-06-26T12:36:42;5.63;;;1.90;;
17173;SDS011;8702;48.130;-1.696;2023-06-26T12:39:10;5.80;;;1.63;;
17173;SDS011;8702;48.130;-1.696;2023-06-26T12:41:48;5.67;;;2.00;;
17173;SDS011;8702;48.130;-1.696;2023-06-26T12:44:20;4.13;;;1.90;;
17173;SDS011;8702;48.130;-1.696;2023-06-26T12:46:48;6.00;;;1.87;;
17173;SDS011;8702;48.130;-1.696;2023-06-26T12:49:19;3.63;;;1.70;;
17173;SDS011;8702;48.130;-1.696;2023-06-26T12:51:47;4.30;;;2.00;;
17173;SDS011;8702;48.130;-1.696;2023-06-26T12:54:14;5.80;;;2.00;;
17173;SDS011;8702;48.130;-1.696;2023-06-26T12:56:41;3.37;;;1.70;;
17173;SDS011;8702;48.130;-1.696;2023-06-26T12:59:08;7.17;;;1.97;;
17173;SDS011;8702;48.130;-1.696;2023-06-26T13:01:36;2.50;;;1.60;;
17173;SDS011;8702;48.130;-1.696;2023-06-26T13:04:03;8.17;;;1.60;;
17173;SDS011;8702;48.130;-1.696;2023-06-26T13:06:33;4.03;;;1.80;;
17173;SDS011;8702;48.130;-1.696;2023-06-26T13:09:00;4.97;;;2.27;;
17173;SDS011;8702;48.130;-1.696;2023-06-26T13:11:29;4.40;;;1.83;;
17173;SDS011;8702;48.130;-1.696;2023-06-26T13:13:56;5.37;;;1.90;;
17173;SDS011;8702;48.130;-1.696;2023-06-26T13:16:23;3.83;;;1.67;;
17173;SDS011;8702;48.130;-1.696;2023-06-26T13:18:51;3.03;;;1.50;;
17173;SDS011;8702;48.130;-1.696;2023-06-26T13:21:18;4.43;;;1.80;;
17173;SDS011;8702;48.130;-1.696;2023-06-26T13:23:45;3.23;;;1.73;;
17173;SDS011;8702;48.130;-1.696;2023-06-26T13:26:12;4.13;;;2.00;;
17173;SDS011;8702;48.130;-1.696;2023-06-26T13:28:39;3.10;;;1.43;;
17173;SDS011;8702;48.130;-1.696;2023-06-26T13:31:06;4.37;;;1.70;;
17173;SDS011;8702;48.130;-1.696;2023-06-26T13:33:33;3.67;;;1.60;;
17173;SDS011;8702;48.130;-1.696;2023-06-26T13:36:01;2.93;;;1.60;;
17173;SDS011;8702;48.130;-1.696;2023-06-26T13:38:29;4.70;;;1.37;;
17173;SDS011;8702;48.130;-1.696;2023-06-26T13:40:58;3.80;;;1.53;;
17173;SDS011;8702;48.130;-1.696;2023-06-26T13:43:26;4.07;;;1.27;;
17173;SDS011;8702;48.130;-1.696;2023-06-26T13:45:54;4.87;;;1.87;;
17173;SDS011;8702;48.130;-1.696;2023-06-26T13:48:22;6.87;;;1.50;;
17173;SDS011;8702;48.130;-1.696;2023-06-26T13:50:50;5.83;;;1.73;;
17173;SDS011;8702;48.130;-1.696;2023-06-26T13:53:19;5.57;;;1.77;;
17173;SDS011;8702;48.130;-1.696;2023-06-26T13:55:46;3.33;;;1.70;;
17173;SDS011;8702;48.130;-1.696;2023-06-26T13:58:13;4.20;;;1.83;;
17173;SDS011;8702;48.130;-1.696;2023-06-26T14:00:40;5.17;;;1.70;;
17173;SDS011;8702;48.130;-1.696;2023-06-26T14:03:09;7.83;;;1.93;;
17173;SDS011;8702;48.130;-1.696;2023-06-26T14:05:37;5.20;;;1.87;;
17173;SDS011;8702;48.130;-1.696;2023-06-26T14:08:04;5.47;;;1.87;;
17173;SDS011;8702;48.130;-1.696;2023-06-26T14:10:34;4.67;;;1.73;;
17173;SDS011;8702;48.130;-1.696;2023-06-26T14:13:01;10.20;;;1.97;;
17173;SDS011;8702;48.130;-1.696;2023-06-26T14:15:28;6.40;;;1.97;;
17173;SDS011;8702;48.130;-1.696;2023-06-26T14:17:55;5.00;;;1.93;;
17173;SDS011;8702;48.130;-1.696;2023-06-26T14:20:23;4.03;;;1.70;;
17173;SDS011;8702;48.130;-1.696;2023-06-26T14:22:50;7.17;;;2.43;;
17173;SDS011;8702;48.130;-1.696;2023-06-26T14:25:17;3.63;;;1.90;;
17173;SDS011;8702;48.130;-1.696;2023-06-26T14:27:46;8.80;;;2.00;;
17173;SDS011;8702;48.130;-1.696;2023-06-26T14:30:13;6.40;;;2.00;;
17173;SDS011;8702;48.130;-1.696;2023-06-26T14:32:40;5.53;;;1.90;;
17173;SDS011;8702;48.130;-1.696;2023-06-26T14:35:08;4.37;;;1.83;;
17173;SDS011;8702;48.130;-1.696;2023-06-26T14:37:35;4.80;;;1.93;;
17173;SDS011;8702;48.130;-1.696;2023-06-26T14:40:05;4.50;;;1.70;;
17173;SDS011;8702;48.130;-1.696;2023-06-26T14:42:33;5.23;;;1.80;;
17173;SDS011;8702;48.130;-1.696;2023-06-26T14:45:02;7.30;;;2.10;;
17173;SDS011;8702;48.130;-1.696;2023-06-26T14:47:29;5.10;;;1.70;;
17173;SDS011;8702;48.130;-1.696;2023-06-26T14:49:56;5.23;;;1.70;;
17173;SDS011;8702;48.130;-1.696;2023-06-26T14:52:23;4.93;;;1.90;;
17173;SDS011;8702;48.130;-1.696;2023-06-26T14:54:50;6.25;;;2.10;;